KDUG

Bisbee Douglas International Airport

Douglas Bisbee, Arizona, USA
METAR KDUG 170556Z AUTO 10007KT 10SM FEW060 SCT080 09/03 A2992 RMK AO2 SLP100 T00890033 10133 20072 52005
Observed Flight Rules
Dec-17 @ 05:56 UTC (26 minutes ago) Visual Flight Rules
Wind Visibility Clouds
100° at 7 knots 10 miles
  • Few at 6,000' AGL
  • Scattered at 8,000' AGL
Temperatures Readings
Current 9°C / 48°F
Dewpoint 3°C / 37°F
Humidity 66%
Altimeter 29.92" Hg
Pressure 1010 hPa
Elevation 1265
METAR KDUG 170556Z AUTO 10007KT 10SM FEW060 SCT080 09/03 A2992 RMK AO2 SLP100 T00890033 10133 20072 52005
Observed Flight Rules
Dec-17 @ 05:56 UTC
(26 minutes ago)
VFR
Wind Visibility
100° at 7 knots 10 miles
Clouds
  • Few at 6,000' AGL
  • Scattered at 8,000' AGL
Temperature Dewpoint
9°C / 48°F 3°C / 37°F
Humidity Altimeter Pressure
66% 29.92" Hg 1010 hPa